Time;durP1;ratioP1;P1;durP2;ratioP2;P2;SDS_P1;SDS_P2;PMS_P1;PMS_P2;Temp;Humidity;BMP_temperature;BMP_pressure;BME280_temperature;BME280_humidity;BME280_pressure;Samples;Min_cycle;Max_cycle;Signal;HPM_P1;HPM_P2
2022/10/18 00:02:11;;;;;;;16.35;8.15;;;;;;;;;;5077267;28;20923;-84
2022/10/18 00:04:44;;;;;;;14.27;8.10;;;;;;;;;;5078970;28;20909;-84
2022/10/18 00:07:18;;;;;;;16.38;8.38;;;;;;;;;;5083977;28;20432;-84
2022/10/18 00:09:46;;;;;;;13.07;7.90;;;;;;;;;;5085476;28;20464;-87
2022/10/18 00:12:14;;;;;;;16.35;8.52;;;;;;;;;;5085202;28;20486;-84
2022/10/18 00:14:41;;;;;;;17.27;8.70;;;;;;;;;;5084060;28;20415;-84
2022/10/18 00:17:09;;;;;;;16.60;8.48;;;;;;;;;;5074635;28;20419;-83
2022/10/18 00:19:42;;;;;;;14.10;8.15;;;;;;;;;;5080924;28;20862;-83
2022/10/18 00:22:10;;;;;;;15.93;8.45;;;;;;;;;;5077946;28;20421;-84
2022/10/18 00:24:44;;;;;;;17.42;8.32;;;;;;;;;;5083355;28;20434;-85
2022/10/18 00:27:17;;;;;;;18.58;8.35;;;;;;;;;;5085761;28;20427;-84
2022/10/18 00:29:45;;;;;;;15.77;8.73;;;;;;;;;;5074032;28;20430;-84
2022/10/18 00:32:18;;;;;;;16.55;8.82;;;;;;;;;;5074998;28;20434;-84
2022/10/18 00:34:51;;;;;;;16.52;8.75;;;;;;;;;;5069904;28;20800;-83
2022/10/18 00:37:19;;;;;;;19.65;8.70;;;;;;;;;;5080509;28;20408;-84
2022/10/18 00:39:53;;;;;;;17.08;8.63;;;;;;;;;;5084228;28;20429;-83
2022/10/18 00:42:27;;;;;;;16.92;8.50;;;;;;;;;;5077998;28;20434;-84
2022/10/18 00:45:22;;;;;;;19.70;8.35;;;;;;;;;;5072934;28;20404;-82
2022/10/18 00:47:52;;;;;;;18.55;7.90;;;;;;;;;;5050451;28;20428;-84
2022/10/18 00:50:25;;;;;;;18.23;7.95;;;;;;;;;;5076546;28;20773;-83
2022/10/18 00:53:01;;;;;;;17.80;8.15;;;;;;;;;;5087402;28;20905;-84
2022/10/18 00:55:35;;;;;;;14.83;7.50;;;;;;;;;;5079256;28;20432;-83
2022/10/18 00:58:08;;;;;;;18.75;8.18;;;;;;;;;;5069702;28;20789;-83
2022/10/18 01:00:39;;;;;;;18.92;8.05;;;;;;;;;;5085466;28;20429;-84
2022/10/18 01:03:12;;;;;;;16.88;8.52;;;;;;;;;;5075810;28;20912;-83
2022/10/18 01:05:46;;;;;;;22.95;8.50;;;;;;;;;;5089505;28;20902;-83
2022/10/18 01:08:26;;;;;;;13.57;7.45;;;;;;;;;;5077183;28;20430;-83
2022/10/18 01:11:07;;;;;;;15.07;7.53;;;;;;;;;;5079035;28;20427;-83
2022/10/18 01:13:46;;;;;;;14.63;7.37;;;;;;;;;;5073649;28;20411;-83
2022/10/18 01:16:18;;;;;;;14.48;7.53;;;;;;;;;;5074849;28;20408;-83
2022/10/18 01:18:47;;;;;;;15.43;8.23;;;;;;;;;;5078113;28;20414;-83
2022/10/18 01:21:29;;;;;;;17.57;8.03;;;;;;;;;;5076693;28;20970;-84
2022/10/18 01:24:04;;;;;;;22.58;8.82;;;;;;;;;;5082616;28;20431;-83
2022/10/18 01:26:49;;;;;;;16.63;8.03;;;;;;;;;;5080777;28;20424;-84
2022/10/18 01:29:21;;;;;;;19.90;8.60;;;;;;;;;;5080221;28;20432;-83
2022/10/18 01:31:58;;;;;;;16.80;8.32;;;;;;;;;;5082432;28;20432;-82
2022/10/18 01:34:27;;;;;;;19.75;7.82;;;;;;;;;;5077728;28;20411;-83
2022/10/18 01:36:56;;;;;;;18.75;8.45;;;;;;;;;;5077299;28;20419;-83
2022/10/18 01:39:31;;;;;;;19.90;8.68;;;;;;;;;;5074064;28;20441;-84
2022/10/18 01:42:05;;;;;;;18.80;8.80;;;;;;;;;;5079568;28;20755;-83
2022/10/18 01:44:34;;;;;;;14.63;8.38;;;;;;;;;;5077015;28;20431;-83
2022/10/18 01:47:10;;;;;;;19.63;8.80;;;;;;;;;;5080507;28;20423;-84
2022/10/18 01:49:38;;;;;;;20.50;9.25;;;;;;;;;;5069844;28;20443;-83
2022/10/18 01:52:12;;;;;;;23.60;9.60;;;;;;;;;;5086391;28;20747;-84
2022/10/18 01:54:48;;;;;;;16.45;8.65;;;;;;;;;;5068504;28;20926;-83
2022/10/18 01:57:24;;;;;;;19.17;9.57;;;;;;;;;;5076362;28;20418;-83
2022/10/18 01:59:59;;;;;;;19.17;9.40;;;;;;;;;;5100486;27;20422;-83
2022/10/18 02:02:46;;;;;;;18.50;9.05;;;;;;;;;;5080620;28;20411;-84
2022/10/18 02:05:20;;;;;;;15.03;8.47;;;;;;;;;;5078723;28;20423;-84
2022/10/18 02:07:51;;;;;;;17.20;8.77;;;;;;;;;;5075085;28;21096;-83
2022/10/18 02:10:27;;;;;;;16.33;8.98;;;;;;;;;;5096360;28;20434;-83
2022/10/18 02:12:56;;;;;;;21.15;8.70;;;;;;;;;;5078542;28;20442;-83
2022/10/18 02:15:29;;;;;;;18.85;8.93;;;;;;;;;;5076686;28;20432;-82
2022/10/18 02:17:58;;;;;;;20.13;9.02;;;;;;;;;;5081441;28;20787;-83
2022/10/18 02:20:28;;;;;;;17.42;8.63;;;;;;;;;;5078786;28;20894;-83
2022/10/18 02:22:57;;;;;;;20.50;9.30;;;;;;;;;;5077288;28;20430;-85
2022/10/18 02:25:31;;;;;;;17.98;8.80;;;;;;;;;;5074901;28;20431;-84
2022/10/18 02:28:00;;;;;;;19.42;9.15;;;;;;;;;;5079699;28;20430;-83
2022/10/18 02:30:32;;;;;;;19.83;9.00;;;;;;;;;;5075411;28;20428;-84
2022/10/18 02:33:04;;;;;;;18.20;9.50;;;;;;;;;;5082332;28;20438;-83
2022/10/18 02:35:35;;;;;;;19.67;9.10;;;;;;;;;;5082647;28;20410;-83
2022/10/18 02:38:04;;;;;;;18.02;9.30;;;;;;;;;;5080346;28;20432;-83
2022/10/18 02:40:37;;;;;;;18.30;9.63;;;;;;;;;;5079371;28;20954;-83
2022/10/18 02:43:10;;;;;;;24.07;9.70;;;;;;;;;;5074892;28;20514;-84
2022/10/18 02:45:38;;;;;;;24.45;9.63;;;;;;;;;;5083084;28;20433;-84
2022/10/18 02:48:12;;;;;;;20.77;9.73;;;;;;;;;;5077658;28;20428;-84
2022/10/18 02:50:44;;;;;;;17.23;9.23;;;;;;;;;;5080663;28;20435;-83
2022/10/18 02:53:12;;;;;;;21.40;9.57;;;;;;;;;;5076195;28;20533;-83
2022/10/18 02:55:40;;;;;;;18.85;9.55;;;;;;;;;;5073035;28;20422;-84
2022/10/18 02:58:08;;;;;;;20.35;9.52;;;;;;;;;;5078654;28;20434;-83
2022/10/18 03:00:40;;;;;;;20.30;9.77;;;;;;;;;;5074609;28;20773;-84
2022/10/18 03:03:08;;;;;;;15.27;8.90;;;;;;;;;;5076950;28;20425;-84
2022/10/18 03:05:37;;;;;;;19.85;9.90;;;;;;;;;;5076830;28;20426;-83
2022/10/18 03:08:10;;;;;;;18.08;9.43;;;;;;;;;;5082795;28;20832;-85
2022/10/18 03:10:38;;;;;;;20.58;10.18;;;;;;;;;;5073372;28;20425;-85
2022/10/18 03:13:11;;;;;;;19.80;10.50;;;;;;;;;;5080568;28;20415;-84
2022/10/18 03:15:39;;;;;;;23.08;10.52;;;;;;;;;;5081411;28;20816;-84
2022/10/18 03:18:06;;;;;;;23.45;10.20;;;;;;;;;;5076236;28;20423;-85
2022/10/18 03:20:41;;;;;;;23.90;10.90;;;;;;;;;;5079763;28;20429;-85
2022/10/18 03:23:08;;;;;;;24.52;11.00;;;;;;;;;;5082298;28;20419;-84
2022/10/18 03:25:41;;;;;;;31.50;10.90;;;;;;;;;;5088562;28;20418;-84
2022/10/18 03:28:09;;;;;;;25.50;11.73;;;;;;;;;;5081187;28;20733;-84
2022/10/18 03:30:42;;;;;;;27.38;12.38;;;;;;;;;;5084438;28;20930;-84
2022/10/18 03:33:14;;;;;;;24.38;11.63;;;;;;;;;;5080666;28;20426;-85
2022/10/18 03:35:44;;;;;;;23.40;11.98;;;;;;;;;;5082723;28;20435;-85
2022/10/18 03:38:11;;;;;;;27.30;11.55;;;;;;;;;;5097345;28;20404;-85
2022/10/18 03:40:39;;;;;;;26.25;12.77;;;;;;;;;;5088931;28;20414;-86
2022/10/18 03:43:07;;;;;;;24.58;12.63;;;;;;;;;;5094482;28;20425;-85
2022/10/18 03:45:35;;;;;;;27.83;12.57;;;;;;;;;;5068792;28;20428;-85
2022/10/18 03:48:08;;;;;;;30.52;12.10;;;;;;;;;;5091827;28;20420;-85
2022/10/18 03:50:35;;;;;;;26.63;12.73;;;;;;;;;;5094664;28;20407;-84
2022/10/18 03:53:09;;;;;;;27.02;12.93;;;;;;;;;;5111997;28;20420;-85
2022/10/18 03:55:42;;;;;;;26.10;13.02;;;;;;;;;;5110211;28;20907;-84
2022/10/18 03:58:15;;;;;;;24.48;12.00;;;;;;;;;;5095340;28;20946;-85
2022/10/18 04:00:43;;;;;;;26.50;12.55;;;;;;;;;;5098806;28;20413;-85
2022/10/18 04:03:11;;;;;;;27.42;12.68;;;;;;;;;;5091403;28;20402;-85
2022/10/18 04:05:44;;;;;;;23.08;12.85;;;;;;;;;;5089662;28;20421;-85
2022/10/18 04:08:18;;;;;;;28.98;13.50;;;;;;;;;;5076957;28;20430;-85
2022/10/18 04:10:51;;;;;;;28.55;12.63;;;;;;;;;;5094764;28;20418;-85
2022/10/18 04:13:24;;;;;;;23.30;11.48;;;;;;;;;;5093703;28;20803;-85
2022/10/18 04:15:52;;;;;;;28.17;12.55;;;;;;;;;;5070950;28;20415;-85
2022/10/18 04:18:24;;;;;;;24.83;12.90;;;;;;;;;;5097997;28;20414;-85
2022/10/18 04:20:57;;;;;;;27.00;12.57;;;;;;;;;;5109407;28;20772;-85
2022/10/18 04:23:31;;;;;;;33.38;14.15;;;;;;;;;;5109697;28;20416;-86
2022/10/18 04:25:59;;;;;;;32.45;14.15;;;;;;;;;;5098983;28;20411;-85
2022/10/18 04:28:32;;;;;;;25.33;13.80;;;;;;;;;;5099375;28;20420;-85
2022/10/18 04:31:06;;;;;;;41.35;14.85;;;;;;;;;;5100900;28;20420;-85
2022/10/18 04:33:33;;;;;;;28.43;13.63;;;;;;;;;;5090560;28;20422;-85
2022/10/18 04:36:01;;;;;;;26.73;13.20;;;;;;;;;;5082539;28;20442;-85
2022/10/18 04:38:29;;;;;;;27.02;13.05;;;;;;;;;;5099515;28;20424;-85
2022/10/18 04:41:03;;;;;;;32.28;14.15;;;;;;;;;;5101997;28;20417;-84
2022/10/18 04:43:31;;;;;;;30.98;13.95;;;;;;;;;;5096048;28;20416;-85
2022/10/18 04:45:59;;;;;;;28.63;13.27;;;;;;;;;;5106123;28;20497;-85
2022/10/18 04:48:32;;;;;;;32.30;14.07;;;;;;;;;;5100511;28;21005;-85
2022/10/18 04:51:05;;;;;;;25.58;13.30;;;;;;;;;;5109347;28;20419;-85
2022/10/18 04:53:38;;;;;;;25.55;12.77;;;;;;;;;;5097231;28;20431;-85
2022/10/18 04:56:12;;;;;;;24.30;12.90;;;;;;;;;;5098876;28;20768;-85
2022/10/18 04:58:40;;;;;;;22.17;12.25;;;;;;;;;;5085638;28;20428;-85
2022/10/18 05:01:12;;;;;;;26.65;13.20;;;;;;;;;;5086900;28;20422;-85
2022/10/18 05:03:45;;;;;;;24.85;12.77;;;;;;;;;;5070656;28;20908;-85
2022/10/18 05:06:13;;;;;;;20.73;12.75;;;;;;;;;;5068314;28;20424;-85
2022/10/18 05:08:41;;;;;;;29.63;13.48;;;;;;;;;;5090794;28;20413;-85
2022/10/18 05:11:15;;;;;;;24.08;12.20;;;;;;;;;;5097135;28;20913;-84
2022/10/18 05:13:48;;;;;;;26.48;13.60;;;;;;;;;;5081553;28;20412;-84
2022/10/18 05:16:15;;;;;;;28.33;13.10;;;;;;;;;;5076171;28;20427;-84
2022/10/18 05:18:43;;;;;;;29.40;14.30;;;;;;;;;;5073514;28;20418;-84
2022/10/18 05:21:11;;;;;;;25.10;12.70;;;;;;;;;;5077489;28;20424;-84
2022/10/18 05:23:39;;;;;;;30.75;14.10;;;;;;;;;;5076915;28;20921;-84
2022/10/18 05:26:12;;;;;;;28.55;14.38;;;;;;;;;;5077784;28;20419;-84
2022/10/18 05:28:46;;;;;;;31.88;14.32;;;;;;;;;;5071941;28;20428;-84
2022/10/18 05:31:14;;;;;;;27.27;13.00;;;;;;;;;;5073352;28;20426;-84
2022/10/18 05:33:42;;;;;;;29.15;13.18;;;;;;;;;;5080023;28;20435;-84
2022/10/18 05:36:10;;;;;;;23.75;12.48;;;;;;;;;;5077637;28;20424;-84
2022/10/18 05:38:38;;;;;;;29.23;12.70;;;;;;;;;;5073957;28;20879;-84
2022/10/18 05:41:06;;;;;;;30.02;12.27;;;;;;;;;;5070492;28;20439;-83
2022/10/18 05:43:39;;;;;;;33.15;12.95;;;;;;;;;;5080990;28;20434;-84
2022/10/18 05:46:08;;;;;;;23.30;12.88;;;;;;;;;;5072033;28;20903;-84
2022/10/18 05:48:36;;;;;;;29.67;12.97;;;;;;;;;;5073802;28;20425;-83
2022/10/18 05:51:09;;;;;;;28.43;13.63;;;;;;;;;;5095819;28;20496;-84
2022/10/18 05:53:41;;;;;;;35.05;13.55;;;;;;;;;;5071885;28;20421;-84
2022/10/18 05:56:14;;;;;;;27.80;13.77;;;;;;;;;;5075393;28;20423;-84
2022/10/18 05:58:49;;;;;;;31.48;13.57;;;;;;;;;;5079015;28;20954;-84
2022/10/18 06:01:18;;;;;;;32.10;13.23;;;;;;;;;;5084383;28;20426;-83
2022/10/18 06:03:51;;;;;;;47.88;13.60;;;;;;;;;;5079555;28;20869;-83
2022/10/18 06:06:19;;;;;;;78.25;12.93;;;;;;;;;;5088757;28;20423;-84
2022/10/18 06:08:52;;;;;;;77.15;13.15;;;;;;;;;;5081840;28;20652;-84
2022/10/18 06:11:20;;;;;;;176.63;14.23;;;;;;;;;;5077115;28;20430;-84
2022/10/18 06:13:49;;;;;;;117.75;13.48;;;;;;;;;;5074764;28;20423;-84
2022/10/18 06:16:24;;;;;;;52.40;11.50;;;;;;;;;;5081527;28;20418;-84
2022/10/18 06:18:58;;;;;;;102.53;13.38;;;;;;;;;;5090440;28;20416;-84
2022/10/18 06:21:31;;;;;;;164.60;15.05;;;;;;;;;;5080104;28;20423;-84
2022/10/18 06:23:59;;;;;;;93.53;13.90;;;;;;;;;;5072937;28;20431;-84
2022/10/18 06:26:32;;;;;;;63.35;14.23;;;;;;;;;;5078553;28;20429;-84
2022/10/18 06:29:00;;;;;;;43.05;14.13;;;;;;;;;;5079025;28;20935;-84
2022/10/18 06:31:29;;;;;;;33.38;13.48;;;;;;;;;;5082655;28;20432;-84
2022/10/18 06:33:57;;;;;;;36.60;14.30;;;;;;;;;;5082804;28;20426;-84
2022/10/18 06:36:25;;;;;;;32.83;14.50;;;;;;;;;;5090140;28;20424;-84
2022/10/18 06:38:58;;;;;;;29.52;13.77;;;;;;;;;;5081675;28;20420;-84
2022/10/18 06:41:31;;;;;;;35.47;14.05;;;;;;;;;;5075633;28;20428;-85
2022/10/18 06:44:18;;;;;;;28.42;13.90;;;;;;;;;;5079120;28;20419;-84
2022/10/18 06:46:48;;;;;;;33.40;14.88;;;;;;;;;;5079679;28;20747;-84
2022/10/18 06:49:16;;;;;;;31.92;13.80;;;;;;;;;;5092536;28;20872;-84
2022/10/18 06:51:49;;;;;;;33.25;14.43;;;;;;;;;;5082242;28;20422;-84
2022/10/18 06:54:22;;;;;;;27.25;13.23;;;;;;;;;;5080643;28;20430;-84
2022/10/18 06:56:49;;;;;;;34.78;14.40;;;;;;;;;;5077127;28;20438;-83
2022/10/18 06:59:17;;;;;;;34.80;14.88;;;;;;;;;;5079793;28;20419;-84
2022/10/18 07:01:51;;;;;;;36.15;15.13;;;;;;;;;;5060699;28;20439;-84
2022/10/18 07:04:19;;;;;;;38.00;15.07;;;;;;;;;;5051172;28;20434;-83
2022/10/18 07:06:47;;;;;;;46.95;16.70;;;;;;;;;;5051613;28;20434;-84
2022/10/18 07:09:20;;;;;;;35.63;15.00;;;;;;;;;;5070251;28;20430;-84
2022/10/18 07:11:52;;;;;;;34.80;14.75;;;;;;;;;;5055457;28;22231;-84
2022/10/18 07:14:25;;;;;;;30.80;14.45;;;;;;;;;;5055145;28;20430;-84
2022/10/18 07:16:55;;;;;;;36.78;16.13;;;;;;;;;;5058421;28;20427;-84
2022/10/18 07:19:27;;;;;;;35.83;16.65;;;;;;;;;;5053579;28;20434;-84
2022/10/18 07:22:00;;;;;;;38.13;15.50;;;;;;;;;;5047957;28;20797;-84
2022/10/18 07:24:33;;;;;;;30.13;14.38;;;;;;;;;;5039492;28;20675;-84
2022/10/18 07:27:06;;;;;;;32.47;14.95;;;;;;;;;;5055951;28;20429;-85
2022/10/18 07:29:39;;;;;;;33.13;15.52;;;;;;;;;;5046216;28;20436;-84
2022/10/18 07:32:08;;;;;;;33.85;15.20;;;;;;;;;;5038841;28;20986;-84
2022/10/18 07:34:36;;;;;;;36.50;15.50;;;;;;;;;;5046386;28;20429;-85
2022/10/18 07:37:09;;;;;;;33.80;15.98;;;;;;;;;;5048495;28;20446;-84
2022/10/18 07:39:42;;;;;;;34.88;16.70;;;;;;;;;;5042106;28;20440;-85
2022/10/18 07:42:09;;;;;;;34.17;15.52;;;;;;;;;;5052010;28;20450;-85
2022/10/18 07:44:38;;;;;;;39.83;17.25;;;;;;;;;;5050358;28;20451;-84
2022/10/18 07:47:12;;;;;;;43.70;17.50;;;;;;;;;;5058213;28;20433;-84
2022/10/18 07:49:39;;;;;;;35.85;17.05;;;;;;;;;;5046906;28;21173;-85
2022/10/18 07:52:12;;;;;;;38.53;18.23;;;;;;;;;;5050106;28;20436;-84
2022/10/18 07:54:40;;;;;;;36.47;18.30;;;;;;;;;;5049677;28;21577;-85
2022/10/18 07:57:13;;;;;;;38.35;16.85;;;;;;;;;;5047153;28;20909;-85
2022/10/18 07:59:43;;;;;;;37.40;17.38;;;;;;;;;;5054139;28;22124;-85
2022/10/18 08:02:18;;;;;;;40.35;17.95;;;;;;;;;;5062341;28;20428;-85
2022/10/18 08:04:51;;;;;;;36.35;18.63;;;;;;;;;;5061037;28;20423;-85
2022/10/18 08:07:19;;;;;;;38.08;18.30;;;;;;;;;;5064273;28;20432;-85
2022/10/18 08:09:47;;;;;;;43.00;19.53;;;;;;;;;;5065342;28;20429;-85
2022/10/18 08:12:15;;;;;;;38.20;18.10;;;;;;;;;;5063366;28;20467;-86
2022/10/18 08:14:42;;;;;;;39.30;18.98;;;;;;;;;;5063629;28;20427;-85
2022/10/18 08:17:10;;;;;;;40.38;18.52;;;;;;;;;;5064790;28;20879;-85
2022/10/18 08:19:44;;;;;;;42.83;19.75;;;;;;;;;;5051907;28;20426;-85
2022/10/18 08:22:12;;;;;;;39.10;18.95;;;;;;;;;;5053441;28;20433;-85
2022/10/18 08:24:40;;;;;;;39.25;19.08;;;;;;;;;;5050611;28;20425;-85
2022/10/18 08:27:08;;;;;;;40.35;19.50;;;;;;;;;;5050243;28;20456;-85
2022/10/18 08:29:36;;;;;;;42.22;18.95;;;;;;;;;;5046790;28;20427;-85
2022/10/18 08:32:04;;;;;;;35.63;19.25;;;;;;;;;;5048081;28;20927;-85
2022/10/18 08:34:37;;;;;;;43.60;19.65;;;;;;;;;;5046183;28;20882;-85
2022/10/18 08:37:06;;;;;;;40.20;20.15;;;;;;;;;;5046927;28;21002;-85
2022/10/18 08:39:39;;;;;;;46.53;20.30;;;;;;;;;;5050407;28;20653;-85
2022/10/18 08:42:20;;;;;;;38.70;20.17;;;;;;;;;;5042624;28;20434;-85
2022/10/18 08:44:49;;;;;;;38.47;20.52;;;;;;;;;;5040349;28;20431;-85
2022/10/18 08:47:18;;;;;;;43.08;20.75;;;;;;;;;;5047963;28;20429;-85
2022/10/18 08:49:53;;;;;;;41.72;21.77;;;;;;;;;;5042422;28;20426;-84
2022/10/18 08:52:31;;;;;;;42.53;21.70;;;;;;;;;;5054963;28;20423;-84
2022/10/18 08:55:01;;;;;;;40.72;20.77;;;;;;;;;;5045681;28;20629;-84
2022/10/18 08:57:30;;;;;;;40.17;19.90;;;;;;;;;;5050800;28;20441;-85
2022/10/18 09:00:07;;;;;;;37.47;20.95;;;;;;;;;;5047494;28;20427;-84
2022/10/18 09:02:47;;;;;;;35.67;19.60;;;;;;;;;;5041487;28;20437;-84
2022/10/18 09:05:25;;;;;;;40.85;19.90;;;;;;;;;;5044538;28;21802;-84
2022/10/18 09:08:08;;;;;;;40.35;20.17;;;;;;;;;;5056928;28;20438;-85
2022/10/18 09:10:43;;;;;;;40.95;19.35;;;;;;;;;;5056695;28;20427;-86
2022/10/18 09:13:29;;;;;;;38.97;18.98;;;;;;;;;;5059078;28;20437;-85
2022/10/18 09:15:59;;;;;;;37.13;18.67;;;;;;;;;;5041345;28;20807;-84
2022/10/18 09:18:35;;;;;;;38.23;18.83;;;;;;;;;;5045507;28;20427;-86
2022/10/18 09:21:08;;;;;;;40.30;18.60;;;;;;;;;;5047156;28;20426;-85
2022/10/18 09:23:42;;;;;;;36.20;17.70;;;;;;;;;;5045443;28;21029;-84
2022/10/18 09:26:17;;;;;;;33.13;17.37;;;;;;;;;;5052021;28;20435;-86
2022/10/18 09:28:58;;;;;;;32.75;17.05;;;;;;;;;;5046184;28;21494;-86
2022/10/18 09:31:37;;;;;;;31.30;16.33;;;;;;;;;;5048763;28;20427;-85
2022/10/18 09:34:08;;;;;;;31.50;16.50;;;;;;;;;;5052591;28;20432;-84
2022/10/18 09:36:37;;;;;;;32.55;16.52;;;;;;;;;;5042017;28;20950;-85
2022/10/18 09:39:10;;;;;;;32.33;16.50;;;;;;;;;;5045762;28;20424;-85
2022/10/18 09:41:40;;;;;;;30.45;15.45;;;;;;;;;;5044920;28;20437;-87
2022/10/18 09:44:15;;;;;;;28.70;15.75;;;;;;;;;;5050027;28;20470;-85
2022/10/18 09:46:50;;;;;;;27.17;15.82;;;;;;;;;;5044989;28;20426;-85
2022/10/18 09:49:24;;;;;;;34.58;15.93;;;;;;;;;;5041657;28;20435;-83
2022/10/18 09:51:53;;;;;;;35.15;16.10;;;;;;;;;;5042378;28;21877;-87
2022/10/18 09:54:30;;;;;;;30.67;15.47;;;;;;;;;;5043645;28;20439;-85
2022/10/18 09:57:04;;;;;;;33.28;15.57;;;;;;;;;;5044446;28;20434;-89
2022/10/18 09:59:35;;;;;;;31.17;15.30;;;;;;;;;;5041702;28;20434;-83
2022/10/18 10:02:11;;;;;;;30.95;15.60;;;;;;;;;;5035698;28;20439;-85
2022/10/18 10:04:44;;;;;;;31.85;15.60;;;;;;;;;;5045150;28;20458;-84
2022/10/18 10:07:13;;;;;;;28.45;14.57;;;;;;;;;;5050980;28;20440;-85
2022/10/18 10:09:45;;;;;;;29.55;15.35;;;;;;;;;;5039759;28;20756;-87
2022/10/18 10:12:25;;;;;;;28.63;15.30;;;;;;;;;;5041479;28;20792;-86
2022/10/18 10:15:07;;;;;;;30.02;15.50;;;;;;;;;;5046537;28;21044;-86
2022/10/18 10:17:40;;;;;;;25.60;14.05;;;;;;;;;;5043396;28;20431;-87
2022/10/18 10:20:18;;;;;;;28.88;14.40;;;;;;;;;;5045900;28;20984;-85
2022/10/18 10:22:52;;;;;;;26.20;13.70;;;;;;;;;;5043739;28;20437;-88
2022/10/18 10:25:23;;;;;;;26.25;11.38;;;;;;;;;;5045330;28;20790;-84
2022/10/18 10:27:51;;;;;;;20.83;11.00;;;;;;;;;;5042916;28;20435;-84
2022/10/18 10:30:25;;;;;;;20.90;11.50;;;;;;;;;;5047215;28;20432;-85
2022/10/18 10:32:58;;;;;;;20.30;10.15;;;;;;;;;;5060499;28;20435;-85
2022/10/18 10:35:32;;;;;;;18.35;9.25;;;;;;;;;;5046874;28;20425;-88
2022/10/18 10:38:06;;;;;;;19.17;9.35;;;;;;;;;;5046506;28;20919;-83
2022/10/18 10:40:45;;;;;;;17.65;8.80;;;;;;;;;;5046754;28;20426;-82
2022/10/18 10:43:20;;;;;;;14.68;7.45;;;;;;;;;;5053453;28;20450;-83
2022/10/18 10:45:56;;;;;;;18.85;8.15;;;;;;;;;;5045091;28;20419;-85
2022/10/18 10:48:32;;;;;;;21.08;8.25;;;;;;;;;;5045918;28;20431;-86
2022/10/18 10:51:06;;;;;;;21.25;8.02;;;;;;;;;;5042536;28;20431;-85
2022/10/18 10:53:36;;;;;;;17.08;7.50;;;;;;;;;;5045996;28;20673;-82
2022/10/18 10:56:06;;;;;;;17.55;7.38;;;;;;;;;;5050909;28;20429;-85
2022/10/18 10:58:35;;;;;;;16.88;7.00;;;;;;;;;;5045594;28;20416;-87
2022/10/18 11:01:24;;;;;;;15.40;7.15;;;;;;;;;;5043403;28;20484;-85
2022/10/18 11:03:59;;;;;;;19.00;6.85;;;;;;;;;;5044937;28;20481;-85
2022/10/18 11:06:37;;;;;;;15.73;6.50;;;;;;;;;;5051457;28;20426;-87
2022/10/18 11:09:16;;;;;;;17.02;7.70;;;;;;;;;;5044941;28;20418;-84
2022/10/18 11:11:55;;;;;;;17.83;6.78;;;;;;;;;;5049151;28;20426;-85
2022/10/18 11:14:25;;;;;;;16.77;5.82;;;;;;;;;;5047636;28;20414;-85
2022/10/18 11:16:56;;;;;;;15.23;5.70;;;;;;;;;;5042303;28;20450;-84
2022/10/18 11:19:32;;;;;;;13.35;5.10;;;;;;;;;;5053593;28;20434;-81
2022/10/18 11:22:08;;;;;;;13.70;5.47;;;;;;;;;;5051952;28;21150;-85
2022/10/18 11:24:41;;;;;;;12.88;5.13;;;;;;;;;;5054517;28;20428;-83
2022/10/18 11:27:13;;;;;;;12.33;5.07;;;;;;;;;;5054289;28;20419;-83
2022/10/18 11:29:45;;;;;;;10.13;3.70;;;;;;;;;;5045092;28;20426;-85
2022/10/18 11:32:16;;;;;;;11.07;3.85;;;;;;;;;;5056062;28;20420;-84
2022/10/18 11:34:54;;;;;;;12.38;4.05;;;;;;;;;;5052682;28;20439;-85
2022/10/18 11:37:28;;;;;;;14.52;3.88;;;;;;;;;;5045302;28;20430;-86
2022/10/18 11:40:07;;;;;;;13.95;3.90;;;;;;;;;;5043202;28;20525;-86
2022/10/18 11:42:45;;;;;;;11.23;3.92;;;;;;;;;;5044951;28;20808;-82
2022/10/18 11:45:22;;;;;;;9.32;3.78;;;;;;;;;;5055725;28;20432;-85
2022/10/18 11:47:59;;;;;;;10.30;4.00;;;;;;;;;;5053056;28;20442;-85
2022/10/18 11:50:31;;;;;;;12.07;4.03;;;;;;;;;;5044920;28;20504;-85
2022/10/18 11:53:09;;;;;;;9.18;3.22;;;;;;;;;;5044001;28;20941;-84
2022/10/18 11:55:48;;;;;;;10.05;3.50;;;;;;;;;;5046192;28;20987;-84
2022/10/18 11:58:27;;;;;;;7.77;2.80;;;;;;;;;;5052108;28;20430;-82
2022/10/18 12:01:06;;;;;;;8.80;3.03;;;;;;;;;;5047091;28;20422;-83
2022/10/18 12:03:37;;;;;;;8.68;3.00;;;;;;;;;;5040389;28;20442;-83
2022/10/18 12:06:07;;;;;;;9.98;3.30;;;;;;;;;;5047248;28;20921;-81
2022/10/18 12:08:37;;;;;;;11.83;3.30;;;;;;;;;;5045184;28;20510;-84
2022/10/18 12:11:08;;;;;;;13.40;3.55;;;;;;;;;;5042161;28;20431;-85
2022/10/18 12:13:39;;;;;;;10.93;3.40;;;;;;;;;;5046388;28;20953;-81
2022/10/18 12:16:09;;;;;;;12.13;3.30;;;;;;;;;;5051945;28;20432;-83
2022/10/18 12:18:46;;;;;;;10.52;3.63;;;;;;;;;;5044321;28;20416;-84
2022/10/18 12:21:21;;;;;;;14.10;4.00;;;;;;;;;;5046284;28;20433;-84
2022/10/18 12:23:57;;;;;;;13.65;3.80;;;;;;;;;;5052155;28;21018;-82
2022/10/18 12:26:25;;;;;;;12.13;3.70;;;;;;;;;;5042722;28;20461;-85
2022/10/18 12:28:58;;;;;;;12.40;4.10;;;;;;;;;;5043346;28;20957;-86
2022/10/18 12:31:28;;;;;;;11.40;4.05;;;;;;;;;;5047785;28;20433;-84
2022/10/18 12:34:02;;;;;;;10.00;3.70;;;;;;;;;;5053441;28;21028;-83
2022/10/18 12:36:41;;;;;;;12.73;3.92;;;;;;;;;;5044152;28;20419;-86
2022/10/18 12:39:18;;;;;;;11.82;3.80;;;;;;;;;;5045641;28;20425;-81
2022/10/18 12:41:53;;;;;;;9.73;3.27;;;;;;;;;;5042706;28;20899;-82
2022/10/18 12:44:30;;;;;;;13.33;3.57;;;;;;;;;;5046475;28;20524;-85
2022/10/18 12:46:59;;;;;;;10.18;3.15;;;;;;;;;;5049199;28;20432;-84
2022/10/18 12:49:33;;;;;;;9.85;2.50;;;;;;;;;;5043006;28;20796;-83
2022/10/18 12:52:02;;;;;;;11.25;2.53;;;;;;;;;;5043378;28;20438;-81
2022/10/18 12:54:30;;;;;;;9.33;2.57;;;;;;;;;;5046906;28;20810;-84
2022/10/18 12:57:04;;;;;;;9.60;2.47;;;;;;;;;;5044873;28;20793;-84
2022/10/18 12:59:50;;;;;;;9.00;3.10;;;;;;;;;;5054278;28;20889;-85
2022/10/18 13:02:29;;;;;;;13.37;3.33;;;;;;;;;;5043189;28;20449;-82
2022/10/18 13:05:21;;;;;;;10.68;3.00;;;;;;;;;;5041662;28;20424;-81
2022/10/18 13:07:50;;;;;;;9.45;2.65;;;;;;;;;;5041647;28;20424;-83
2022/10/18 13:10:39;;;;;;;9.90;2.72;;;;;;;;;;5043306;28;20433;-85
2022/10/18 13:13:22;;;;;;;9.30;2.58;;;;;;;;;;5049922;28;20444;-83
2022/10/18 13:15:59;;;;;;;10.38;2.85;;;;;;;;;;5045297;28;20428;-84
2022/10/18 13:18:37;;;;;;;13.88;3.13;;;;;;;;;;5046640;28;20459;-84
2022/10/18 13:21:14;;;;;;;11.50;2.50;;;;;;;;;;5047637;28;20432;-83
2022/10/18 13:24:01;;;;;;;6.57;2.10;;;;;;;;;;5040567;28;20427;-84
2022/10/18 13:26:41;;;;;;;9.30;1.95;;;;;;;;;;5046483;28;20436;-85
2022/10/18 13:29:23;;;;;;;10.93;1.70;;;;;;;;;;5042603;28;20873;-85
2022/10/18 13:31:55;;;;;;;8.15;1.70;;;;;;;;;;5047348;28;21550;-83
2022/10/18 13:34:25;;;;;;;9.32;1.67;;;;;;;;;;5045775;28;20488;-83
2022/10/18 13:36:59;;;;;;;9.85;1.70;;;;;;;;;;5041888;28;21831;-84
2022/10/18 13:39:28;;;;;;;10.65;1.70;;;;;;;;;;5039110;28;20931;-82
2022/10/18 13:42:23;;;;;;;8.33;1.50;;;;;;;;;;5044331;28;20758;-82
2022/10/18 13:44:50;;;;;;;10.30;1.95;;;;;;;;;;5045766;28;20441;-82
2022/10/18 13:47:33;;;;;;;9.82;1.60;;;;;;;;;;5049719;28;20420;-82
2022/10/18 13:50:06;;;;;;;10.10;1.70;;;;;;;;;;5045459;28;20424;-83
2022/10/18 13:52:49;;;;;;;8.35;1.50;;;;;;;;;;5055838;28;20433;-84
2022/10/18 13:55:40;;;;;;;11.60;1.80;;;;;;;;;;5046069;28;21074;-84
2022/10/18 13:58:18;;;;;;;11.10;1.70;;;;;;;;;;5050377;28;21089;-80
2022/10/18 14:00:55;;;;;;;6.97;1.42;;;;;;;;;;5055932;28;20494;-80
2022/10/18 14:03:35;;;;;;;8.70;1.70;;;;;;;;;;5045922;28;20669;-82
2022/10/18 14:06:04;;;;;;;10.98;1.52;;;;;;;;;;5045109;28;21425;-82
2022/10/18 14:08:40;;;;;;;13.30;1.88;;;;;;;;;;5048825;28;20413;-82
2022/10/18 14:11:18;;;;;;;8.85;1.33;;;;;;;;;;5050420;28;20871;-86
2022/10/18 14:13:47;;;;;;;11.02;1.48;;;;;;;;;;5045417;28;20431;-82
2022/10/18 14:16:27;;;;;;;11.10;1.55;;;;;;;;;;5053617;28;20474;-84
2022/10/18 14:19:04;;;;;;;11.93;1.67;;;;;;;;;;5052351;28;20480;-83
2022/10/18 14:21:38;;;;;;;9.80;1.58;;;;;;;;;;5045912;28;20935;-82
2022/10/18 14:24:17;;;;;;;11.20;1.50;;;;;;;;;;5047780;28;20426;-82
2022/10/18 14:27:05;;;;;;;8.90;1.50;;;;;;;;;;5056265;28;20758;-83
2022/10/18 14:29:34;;;;;;;9.52;1.80;;;;;;;;;;5051630;28;21184;-86
2022/10/18 14:32:08;;;;;;;10.43;2.27;;;;;;;;;;5048625;28;20436;-83
2022/10/18 14:34:43;;;;;;;9.32;1.40;;;;;;;;;;5057052;28;21600;-82
2022/10/18 14:37:18;;;;;;;13.98;1.50;;;;;;;;;;5047985;28;20427;-84
2022/10/18 14:39:46;;;;;;;6.03;1.20;;;;;;;;;;5046259;28;20440;-82
2022/10/18 14:42:19;;;;;;;11.27;1.70;;;;;;;;;;5047179;28;20422;-86
2022/10/18 14:44:54;;;;;;;9.18;1.50;;;;;;;;;;5046158;28;20977;-81
2022/10/18 14:47:28;;;;;;;9.30;1.50;;;;;;;;;;5051588;28;20428;-81
2022/10/18 14:49:57;;;;;;;9.35;1.60;;;;;;;;;;5050893;28;21374;-83
2022/10/18 14:52:31;;;;;;;10.20;1.30;;;;;;;;;;5047190;28;20432;-84
2022/10/18 14:55:04;;;;;;;10.85;1.77;;;;;;;;;;5046820;28;20432;-84
2022/10/18 14:57:37;;;;;;;10.85;1.75;;;;;;;;;;5050404;28;20440;-83